Wetterstation Vordersexau
Wetterdaten: Woche 03.07.17 - 09.07.17 (KW27)
Datum Zeit Temp. A. Feuchte A. Luftdruck Regen Wind Richtung Taupunkt Windchill Windben
03.07.2017 00:00 14,8 C 81 % 994,2 hPa 0,0 l/m 0,0 km/h N-NO 11,6 C 14,8 C 0,0 km/h
03.07.2017 01:00 14,7 C 80 % 994,6 hPa 0,0 l/m 0,0 km/h N-NO 11,3 C 14,7 C 0,0 km/h
03.07.2017 02:00 14,5 C 79 % 994,6 hPa 0,5 l/m 0,0 km/h S-SO 10,9 C 14,5 C 0,0 km/h
03.07.2017 03:00 14,6 C 78 % 994,7 hPa 0,0 l/m 0,0 km/h S-SO 10,8 C 14,6 C 0,0 km/h
03.07.2017 04:00 13,9 C 78 % 994,7 hPa 0,0 l/m 0,0 km/h O-SO 10,1 C 13,9 C 0,0 km/h
03.07.2017 05:00 13,9 C 77 % 994,6 hPa 0,0 l/m 0,0 km/h O-SO 9,9 C 13,9 C 0,0 km/h
03.07.2017 06:00 13,9 C 76 % 994,5 hPa 0,0 l/m 0,0 km/h NO 9,7 C 13,9 C 0,0 km/h
03.07.2017 07:00 16,8 C 68 % 994,7 hPa 0,0 l/m 0,0 km/h O 10,9 C 16,8 C 0,0 km/h
03.07.2017 08:00 21,5 C 76 % 1021,9 hPa 0,5 l/m 0,0 km/h S-SO 17,1 C 21,5 C 0,0 km/h
03.07.2017 09:00 20,6 C 74 % 1021,9 hPa 0,0 l/m 0,0 km/h W-NW 15,8 C 20,6 C 0,0 km/h
03.07.2017 10:00 23,5 C 60 % 1021,7 hPa 0,0 l/m 6,5 km/h W-SW 15,3 C 23,5 C 3,6 km/h
03.07.2017 11:00 23,9 C 60 % 1021,5 hPa 0,0 l/m 3,2 km/h N 15,7 C 23,9 C 1,8 km/h
03.07.2017 12:00 24,5 C 56 % 1021,2 hPa 0,0 l/m 0,0 km/h S 15,1 C 24,5 C 0,0 km/h
03.07.2017 13:00 26,9 C 51 % 1020,6 hPa 0,0 l/m 2,6 km/h W 15,9 C 26,9 C 1,4 km/h
03.07.2017 14:00 27,9 C 47 % 1020,1 hPa 0,0 l/m 7,1 km/h W-NW 15,5 C 27,8 C 4,0 km/h
03.07.2017 15:00 26,9 C 50 % 1019,8 hPa 0,0 l/m 0,6 km/h S-SW 15,6 C 26,9 C 0,4 km/h
03.07.2017 16:00 28,0 C 45 % 1019,2 hPa 0,0 l/m 14,3 km/h SO 14,9 C 27,0 C 7,9 km/h
03.07.2017 17:00 31,9 C 36 % 1018,8 hPa 0,0 l/m 7,8 km/h W 14,9 C 31,9 C 4,3 km/h
03.07.2017 18:00 24,3 C 49 % 1018,8 hPa 0,0 l/m 0,0 km/h W 12,9 C 24,3 C 0,0 km/h
03.07.2017 19:00 24,3 C 50 % 1018,7 hPa 0,0 l/m 0,0 km/h NW 13,2 C 24,3 C 0,0 km/h
03.07.2017 20:00 21,6 C 59 % 1018,7 hPa 0,0 l/m 0,0 km/h O-NO 13,2 C 21,6 C 0,0 km/h
03.07.2017 21:00 18,8 C 70 % 1019,0 hPa 0,0 l/m 0,0 km/h SO 13,2 C 18,8 C 0,0 km/h
03.07.2017 22:00 17,6 C 74 % 1019,3 hPa 0,0 l/m 0,0 km/h SO 12,9 C 17,6 C 0,0 km/h
03.07.2017 23:00 15,9 C 79 % 1019,5 hPa 0,0 l/m 0,0 km/h O-SO 12,3 C 15,9 C 0,0 km/h
04.07.2017 00:00 15,0 C 81 % 1019,7 hPa 0,0 l/m 0,0 km/h O-SO 11,8 C 15,0 C 0,0 km/h
04.07.2017 01:00 14,9 C 82 % 1019,6 hPa 0,0 l/m 0,0 km/h SO 11,9 C 14,9 C 0,0 km/h
04.07.2017 02:00 15,3 C 82 % 1019,2 hPa 0,0 l/m 0,0 km/h O-SO 12,2 C 15,3 C 0,0 km/h
04.07.2017 03:00 14,6 C 82 % 1019,1 hPa 0,0 l/m 0,0 km/h O-SO 11,6 C 14,6 C 0,0 km/h
04.07.2017 04:00 13,9 C 83 % 1019,1 hPa 0,0 l/m 0,0 km/h O-SO 11,1 C 13,9 C 0,0 km/h
04.07.2017 05:00 14,1 C 83 % 1019,2 hPa 0,0 l/m 0,0 km/h SO 11,3 C 14,1 C 0,0 km/h
04.07.2017 06:00 14,5 C 83 % 1019,3 hPa 0,0 l/m 0,0 km/h SO 11,6 C 14,5 C 0,0 km/h
04.07.2017 07:00 18,4 C 79 % 1019,6 hPa 0,0 l/m 2,6 km/h N-NO 14,7 C 18,4 C 1,4 km/h
04.07.2017 08:00 25,9 C 57 % 1019,4 hPa 0,0 l/m 0,0 km/h W 16,7 C 25,9 C 0,0 km/h
04.07.2017 09:00 28,5 C 47 % 1019,3 hPa 0,0 l/m 0,0 km/h W 16,1 C 28,5 C 0,0 km/h
04.07.2017 10:00 27,7 C 48 % 1019,0 hPa 0,0 l/m 0,0 km/h N-NO 15,7 C 27,7 C 0,0 km/h
04.07.2017 11:00 28,2 C 46 % 1018,5 hPa 0,0 l/m 0,0 km/h N-NO 15,5 C 28,2 C 0,0 km/h
04.07.2017 12:00 28,0 C 46 % 1018,1 hPa 0,0 l/m 0,0 km/h W 15,3 C 28,0 C 0,0 km/h
04.07.2017 13:00 29,9 C 41 % 1017,6 hPa 0,0 l/m 0,0 km/h N-NO 15,2 C 29,9 C 0,0 km/h
04.07.2017 14:00 30,2 C 39 % 1017,3 hPa 0,0 l/m 5,8 km/h N 14,7 C 30,2 C 3,2 km/h
04.07.2017 15:00 30,6 C 39 % 1017,1 hPa 0,0 l/m 0,0 km/h O-NO 15,0 C 30,6 C 0,0 km/h
04.07.2017 16:00 34,0 C 34 % 1016,6 hPa 0,0 l/m 0,0 km/h N 15,9 C 34,0 C 0,0 km/h
04.07.2017 17:00 36,3 C 30 % 1016,0 hPa 0,0 l/m 0,0 km/h N 15,9 C 36,3 C 0,0 km/h
04.07.2017 18:00 34,2 C 32 % 1015,9 hPa 0,0 l/m 0,0 km/h N 15,1 C 34,2 C 0,0 km/h
04.07.2017 19:00 27,4 C 43 % 1015,8 hPa 0,0 l/m 0,0 km/h N 13,7 C 27,4 C 0,0 km/h
04.07.2017 20:00 24,5 C 53 % 1015,8 hPa 0,0 l/m 0,0 km/h N-NO 14,3 C 24,5 C 0,0 km/h
04.07.2017 21:00 20,3 C 64 % 1016,3 hPa 0,0 l/m 0,0 km/h N-NO 13,3 C 20,3 C 0,0 km/h
04.07.2017 22:00 18,5 C 71 % 1016,3 hPa 0,0 l/m 0,0 km/h SO 13,1 C 18,5 C 0,0 km/h
04.07.2017 23:00 17,3 C 75 % 1016,2 hPa 0,0 l/m 0,0 km/h SO 12,8 C 17,3 C 0,0 km/h
05.07.2017 00:00 16,9 C 77 % 1016,2 hPa 0,0 l/m 0,0 km/h SO 12,8 C 16,9 C 0,0 km/h
05.07.2017 01:00 16,4 C 79 % 1015,9 hPa 0,0 l/m 0,0 km/h N-NO 12,7 C 16,4 C 0,0 km/h
05.07.2017 02:00 15,6 C 80 % 1015,7 hPa 0,0 l/m 0,0 km/h O-SO 12,2 C 15,6 C 0,0 km/h
05.07.2017 03:00 14,7 C 81 % 1015,9 hPa 0,0 l/m 0,0 km/h SO 11,5 C 14,7 C 0,0 km/h
05.07.2017 04:00 14,1 C 82 % 1015,7 hPa 0,0 l/m 0,0 km/h W-SW 11,1 C 14,1 C 0,0 km/h
05.07.2017 05:00 13,8 C 83 % 1015,5 hPa 0,0 l/m 0,0 km/h SO 11,0 C 13,8 C 0,0 km/h
05.07.2017 06:00 14,5 C 83 % 1015,6 hPa 0,0 l/m 0,0 km/h O-SO 11,6 C 14,5 C 0,0 km/h
05.07.2017 07:00 19,0 C 81 % 1016,0 hPa 0,0 l/m 0,0 km/h O-SO 15,7 C 19,0 C 0,0 km/h
05.07.2017 08:00 29,3 C 50 % 1015,8 hPa 0,0 l/m 0,0 km/h SW 17,8 C 29,3 C 0,0 km/h
05.07.2017 09:00 30,3 C 46 % 1016,0 hPa 0,0 l/m 0,0 km/h S-SW 17,4 C 30,3 C 0,0 km/h
05.07.2017 10:00 30,9 C 44 % 1015,9 hPa 0,0 l/m 0,0 km/h N 17,2 C 30,9 C 0,0 km/h
05.07.2017 11:00 31,3 C 41 % 1015,7 hPa 0,0 l/m 0,0 km/h W 16,4 C 31,3 C 0,0 km/h
05.07.2017 12:00 30,9 C 43 % 1015,3 hPa 0,0 l/m 0,0 km/h SO 16,8 C 30,9 C 0,0 km/h
05.07.2017 13:00 33,5 C 37 % 1014,9 hPa 0,0 l/m 0,0 km/h O-SO 16,8 C 33,5 C 0,0 km/h
05.07.2017 14:00 34,4 C 34 % 1014,5 hPa 0,0 l/m 0,0 km/h N 16,2 C 34,4 C 0,0 km/h
05.07.2017 15:00 33,6 C 35 % 1014,1 hPa 0,0 l/m 0,0 km/h N-NO 16,0 C 33,6 C 0,0 km/h
05.07.2017 16:00 36,4 C 31 % 1014,0 hPa 0,0 l/m 24,0 km/h O-NO 16,5 C 36,4 C 13,3 km/h
05.07.2017 17:00 37,1 C 32 % 1013,9 hPa 0,0 l/m 0,0 km/h N-NO 17,6 C 37,1 C 0,0 km/h
05.07.2017 18:00 34,5 C 33 % 1013,5 hPa 0,0 l/m 0,0 km/h N-NO 15,8 C 34,5 C 0,0 km/h
05.07.2017 19:00 30,1 C 43 % 1013,5 hPa 0,0 l/m 0,0 km/h NO 16,1 C 30,1 C 0,0 km/h
05.07.2017 20:00 26,3 C 54 % 1013,5 hPa 0,0 l/m 0,0 km/h O-NO 16,2 C 26,3 C 0,0 km/h
05.07.2017 21:00 22,1 C 65 % 1014,1 hPa 0,0 l/m 0,0 km/h NO 15,2 C 22,1 C 0,0 km/h
05.07.2017 22:00 20,9 C 69 % 1014,7 hPa 0,0 l/m 0,0 km/h NO 15,0 C 20,9 C 0,0 km/h
05.07.2017 23:00 19,3 C 74 % 1014,7 hPa 0,0 l/m 0,0 km/h SO 14,5 C 19,3 C 0,0 km/h
06.07.2017 00:00 18,9 C 77 % 1014,8 hPa 0,0 l/m 0,0 km/h O-NO 14,8 C 18,9 C 0,0 km/h
06.07.2017 01:00 18,3 C 76 % 1014,9 hPa 0,0 l/m 0,0 km/h SO 14,0 C 18,3 C 0,0 km/h
06.07.2017 02:00 17,4 C 79 % 1014,8 hPa 0,0 l/m 0,0 km/h SO 13,7 C 17,4 C 0,0 km/h
06.07.2017 03:00 16,9 C 80 % 1014,8 hPa 0,0 l/m 0,0 km/h SO 13,4 C 16,9 C 0,0 km/h
06.07.2017 04:00 15,9 C 81 % 1015,0 hPa 0,0 l/m 0,0 km/h O-SO 12,6 C 15,9 C 0,0 km/h
06.07.2017 05:00 15,7 C 82 % 1015,1 hPa 0,0 l/m 0,0 km/h N 12,6 C 15,7 C 0,0 km/h
06.07.2017 06:00 16,9 C 82 % 1015,8 hPa 0,0 l/m 0,0 km/h N 13,8 C 16,9 C 0,0 km/h
06.07.2017 07:00 21,0 C 79 % 1015,9 hPa 0,0 l/m 0,0 km/h N 17,2 C 21,0 C 0,0 km/h
06.07.2017 08:00 30,1 C 48 % 1016,0 hPa 0,0 l/m 0,0 km/h S 17,9 C 30,1 C 0,0 km/h
06.07.2017 09:00 31,7 C 43 % 1015,9 hPa 0,0 l/m 0,0 km/h NW 17,6 C 31,7 C 0,0 km/h
06.07.2017 10:00 32,4 C 42 % 1015,7 hPa 0,0 l/m 0,0 km/h W-SW 17,8 C 32,4 C 0,0 km/h
06.07.2017 11:00 33,3 C 39 % 1015,5 hPa 0,0 l/m 0,0 km/h W-SW 17,4 C 33,3 C 0,0 km/h
06.07.2017 12:00 34,4 C 31 % 1015,1 hPa 0,0 l/m 0,0 km/h W-SW 14,8 C 34,4 C 0,0 km/h
06.07.2017 13:00 35,2 C 27 % 1015,0 hPa 0,0 l/m 18,1 km/h SW 13,3 C 35,2 C 10,1 km/h
06.07.2017 14:00 36,4 C 25 % 1014,3 hPa 0,0 l/m 11,7 km/h SW 13,2 C 36,4 C 6,5 km/h
06.07.2017 15:00 36,6 C 24 % 1013,9 hPa 0,0 l/m 9,1 km/h S-SW 12,7 C 36,6 C 5,0 km/h
06.07.2017 16:00 39,9 C 20 % 1013,2 hPa 0,0 l/m 0,0 km/h W-SW 12,6 C 39,9 C 0,0 km/h
06.07.2017 17:00 39,8 C 20 % 1012,9 hPa 0,0 l/m 0,0 km/h SW 12,6 C 39,8 C 0,0 km/h
06.07.2017 18:00 38,9 C 20 % 1012,4 hPa 0,0 l/m 0,0 km/h W-SW 11,8 C 38,9 C 0,0 km/h
06.07.2017 19:00 32,8 C 27 % 1012,7 hPa 0,0 l/m 0,0 km/h W-SW 11,3 C 32,8 C 0,0 km/h
06.07.2017 20:00 28,3 C 44 % 1012,8 hPa 0,0 l/m 0,0 km/h W-SW 14,9 C 28,3 C 0,0 km/h
06.07.2017 21:00 23,6 C 49 % 1013,3 hPa 0,0 l/m 0,0 km/h SO 12,2 C 23,6 C 0,0 km/h
06.07.2017 22:00 21,3 C 57 % 1013,6 hPa 0,0 l/m 0,0 km/h SO 12,4 C 21,3 C 0,0 km/h
06.07.2017 23:00 21,3 C 59 % 1013,8 hPa 0,0 l/m 0,0 km/h O-SO 13,0 C 21,3 C 0,0 km/h
07.07.2017 00:00 20,4 C 62 % 1014,0 hPa 0,0 l/m 0,0 km/h O-NO 12,9 C 20,4 C 0,0 km/h
07.07.2017 01:00 20,1 C 64 % 1014,1 hPa 0,0 l/m 0,0 km/h NO 13,1 C 20,1 C 0,0 km/h
07.07.2017 02:00 19,4 C 66 % 1014,6 hPa 0,0 l/m 0,0 km/h N-NO 12,9 C 19,4 C 0,0 km/h
07.07.2017 03:00 18,9 C 67 % 1014,1 hPa 0,0 l/m 0,0 km/h O-SO 12,6 C 18,9 C 0,0 km/h
07.07.2017 04:00 16,9 C 73 % 1014,1 hPa 0,0 l/m 0,0 km/h O-SO 12,0 C 16,9 C 0,0 km/h
07.07.2017 05:00 17,3 C 73 % 1014,3 hPa 0,0 l/m 0,0 km/h O-SO 12,4 C 17,3 C 0,0 km/h
07.07.2017 06:00 18,9 C 72 % 1014,2 hPa 0,0 l/m 0,0 km/h SO 13,7 C 18,9 C 0,0 km/h
07.07.2017 07:00 24,5 C 55 % 1014,5 hPa 0,0 l/m 0,0 km/h SW 14,9 C 24,5 C 0,0 km/h
07.07.2017 08:00 26,3 C 46 % 1014,9 hPa 0,0 l/m 0,0 km/h S 13,7 C 26,3 C 0,0 km/h
07.07.2017 09:00 30,3 C 44 % 1014,8 hPa 0,0 l/m 0,6 km/h SW 16,7 C 30,3 C 0,4 km/h
07.07.2017 10:00 29,9 C 45 % 1015,0 hPa 0,0 l/m 1,9 km/h SW 16,7 C 29,9 C 1,1 km/h
07.07.2017 11:00 30,2 C 48 % 1015,6 hPa 0,0 l/m 11,0 km/h SW 17,9 C 29,8 C 6,1 km/h
07.07.2017 12:00 30,3 C 50 % 1015,5 hPa 0,0 l/m 11,0 km/h S 18,7 C 30,0 C 6,1 km/h
07.07.2017 13:00 31,3 C 48 % 1015,1 hPa 0,0 l/m 2,6 km/h SW 18,9 C 31,3 C 1,4 km/h
07.07.2017 14:00 35,8 C 39 % 1014,8 hPa 0,0 l/m 7,8 km/h S-SO 19,6 C 35,8 C 4,3 km/h
07.07.2017 15:00 35,2 C 38 % 1014,0 hPa 0,0 l/m 11,7 km/h SW 18,7 C 35,2 C 6,5 km/h
07.07.2017 16:00 33,2 C 39 % 1013,8 hPa 0,0 l/m 20,1 km/h W-NW 17,3 C 33,2 C 11,2 km/h
07.07.2017 17:00 31,0 C 44 % 1013,6 hPa 0,0 l/m 0,0 km/h N-NO 17,3 C 31,0 C 0,0 km/h
07.07.2017 18:00 28,8 C 59 % 1013,9 hPa 0,0 l/m 0,0 km/h O-NO 20,0 C 28,8 C 0,0 km/h
07.07.2017 19:00 26,5 C 68 % 1014,0 hPa 0,0 l/m 0,0 km/h N-NO 20,1 C 26,5 C 0,0 km/h
07.07.2017 20:00 23,6 C 76 % 1014,3 hPa 0,0 l/m 0,0 km/h NO 19,1 C 23,6 C 0,0 km/h
07.07.2017 21:00 21,4 C 80 % 1014,6 hPa 0,0 l/m 0,0 km/h N 17,8 C 21,4 C 0,0 km/h
07.07.2017 22:00 20,5 C 82 % 1014,9 hPa 0,0 l/m 0,0 km/h O-SO 17,3 C 20,5 C 0,0 km/h
07.07.2017 23:00 19,6 C 82 % 1015,0 hPa 0,0 l/m 0,0 km/h O-SO 16,4 C 19,6 C 0,0 km/h
08.07.2017 00:00 19,6 C 82 % 1015,4 hPa 0,0 l/m 0,0 km/h O-SO 16,4 C 19,6 C 0,0 km/h
08.07.2017 01:00 19,7 C 82 % 1015,3 hPa 0,0 l/m 0,0 km/h O-SO 16,5 C 19,7 C 0,0 km/h
08.07.2017 02:00 19,8 C 82 % 1015,1 hPa 0,0 l/m 0,0 km/h O-SO 16,6 C 19,8 C 0,0 km/h
08.07.2017 03:00 19,0 C 82 % 1014,8 hPa 0,0 l/m 0,0 km/h O-SO 15,9 C 19,0 C 0,0 km/h
08.07.2017 04:00 18,1 C 82 % 1014,7 hPa 0,0 l/m 0,0 km/h O-SO 15,0 C 18,1 C 0,0 km/h
08.07.2017 05:00 18,2 C 81 % 1014,6 hPa 0,0 l/m 0,0 km/h SO 14,9 C 18,2 C 0,0 km/h
08.07.2017 06:00 18,6 C 80 % 1014,8 hPa 0,0 l/m 0,0 km/h O-SO 15,1 C 18,6 C 0,0 km/h
08.07.2017 07:00 22,6 C 81 % 1014,7 hPa 0,0 l/m 0,0 km/h SO 19,2 C 22,6 C 0,0 km/h
08.07.2017 08:00 30,5 C 61 % 1014,7 hPa 0,0 l/m 0,0 km/h N-NO 22,1 C 30,5 C 0,0 km/h
08.07.2017 09:00 34,9 C 46 % 1014,4 hPa 0,0 l/m 0,0 km/h W 21,5 C 34,9 C 0,0 km/h
08.07.2017 10:00 34,4 C 44 % 1014,3 hPa 0,0 l/m 0,0 km/h S 20,3 C 34,4 C 0,0 km/h
08.07.2017 11:00 35,1 C 42 % 1014,0 hPa 0,0 l/m 0,0 km/h W-NW 20,2 C 35,1 C 0,0 km/h
08.07.2017 12:00 35,4 C 41 % 1013,7 hPa 0,0 l/m 5,2 km/h W-SW 20,1 C 35,4 C 2,9 km/h
08.07.2017 13:00 36,2 C 37 % 1013,3 hPa 0,0 l/m 24,0 km/h NW 19,1 C 36,2 C 13,3 km/h
08.07.2017 14:00 37,3 C 34 % 1012,7 hPa 0,0 l/m 0,0 km/h W 18,8 C 37,3 C 0,0 km/h
08.07.2017 15:00 36,3 C 37 % 1012,3 hPa 0,0 l/m 0,0 km/h N-NO 19,2 C 36,3 C 0,0 km/h
08.07.2017 16:00 34,4 C 37 % 1012,2 hPa 0,0 l/m 5,2 km/h N-NO 17,6 C 34,4 C 2,9 km/h
08.07.2017 17:00 33,8 C 40 % 1012,2 hPa 0,0 l/m 0,0 km/h O 18,3 C 33,8 C 0,0 km/h
08.07.2017 18:00 35,6 C 41 % 1012,3 hPa 0,0 l/m 0,0 km/h N-NO 20,3 C 35,6 C 0,0 km/h
08.07.2017 19:00 30,2 C 49 % 1012,0 hPa 0,0 l/m 0,0 km/h O-SO 18,3 C 30,2 C 0,0 km/h
08.07.2017 20:00 27,5 C 56 % 1012,1 hPa 0,0 l/m 0,0 km/h O-SO 17,9 C 27,5 C 0,0 km/h
08.07.2017 21:00 25,6 C 64 % 1012,8 hPa 0,0 l/m 0,0 km/h O 18,3 C 25,6 C 0,0 km/h
08.07.2017 22:00 24,4 C 69 % 1012,8 hPa 0,0 l/m 0,0 km/h O-NO 18,3 C 24,4 C 0,0 km/h
08.07.2017 23:00 23,3 C 71 % 1012,4 hPa 0,0 l/m 0,0 km/h O-NO 17,7 C 23,3 C 0,0 km/h
09.07.2017 00:00 21,8 C 73 % 1012,5 hPa 0,0 l/m 0,0 km/h O-NO 16,7 C 21,8 C 0,0 km/h
09.07.2017 01:00 20,8 C 75 % 1012,0 hPa 0,0 l/m 0,0 km/h SW 16,2 C 20,8 C 0,0 km/h
09.07.2017 02:00 20,8 C 77 % 1013,6 hPa 0,0 l/m 0,0 km/h W 16,6 C 20,8 C 0,0 km/h
09.07.2017 03:00 19,2 C 80 % 1014,9 hPa 3,6 l/m 0,0 km/h O-NO 15,7 C 19,2 C 0,0 km/h
09.07.2017 04:00 18,2 C 82 % 1013,1 hPa 2,1 l/m 0,0 km/h S-SO 15,1 C 18,2 C 0,0 km/h
09.07.2017 05:00 18,4 C 81 % 1012,0 hPa 0,0 l/m 0,0 km/h W-NW 15,1 C 18,4 C 0,0 km/h
09.07.2017 06:00 19,0 C 80 % 1012,0 hPa 0,0 l/m 0,0 km/h N-NO 15,5 C 19,0 C 0,0 km/h
09.07.2017 07:00 20,3 C 80 % 1011,5 hPa 0,0 l/m 0,0 km/h W-NW 16,7 C 20,3 C 0,0 km/h
09.07.2017 08:00 22,5 C 80 % 1011,7 hPa 0,0 l/m 0,0 km/h N 18,9 C 22,5 C 0,0 km/h
09.07.2017 09:00 23,6 C 78 % 1011,9 hPa 0,0 l/m 0,0 km/h O 19,5 C 23,6 C 0,0 km/h
09.07.2017 10:00 26,3 C 72 % 1010,4 hPa 0,0 l/m 0,0 km/h N-NO 20,8 C 26,3 C 0,0 km/h
09.07.2017 11:00 30,1 C 59 % 1010,0 hPa 0,0 l/m 0,0 km/h SW 21,2 C 30,1 C 0,0 km/h
09.07.2017 12:00 27,3 C 64 % 1011,5 hPa 0,0 l/m 9,7 km/h S-SW 19,9 C 26,7 C 5,4 km/h
09.07.2017 13:00 28,4 C 59 % 1011,4 hPa 0,0 l/m 0,0 km/h S-SO 19,6 C 28,4 C 0,0 km/h
09.07.2017 14:00 25,9 C 60 % 1011,4 hPa 0,0 l/m 0,0 km/h N-NO 17,5 C 25,9 C 0,0 km/h
09.07.2017 15:00 25,6 C 70 % 1009,7 hPa 0,0 l/m 0,0 km/h N-NO 19,7 C 25,6 C 0,0 km/h
09.07.2017 16:00 28,8 C 58 % 1009,1 hPa 0,0 l/m 0,0 km/h N-NW 19,7 C 28,8 C 0,0 km/h
09.07.2017 17:00 27,3 C 56 % 1009,1 hPa 0,0 l/m 0,0 km/h S-SW 17,7 C 27,3 C 0,0 km/h
09.07.2017 18:00 22,2 C 76 % 1010,4 hPa 0,5 l/m 5,2 km/h SO 17,8 C 22,2 C 2,9 km/h
09.07.2017 19:00 21,1 C 81 % 1009,8 hPa 0,0 l/m 0,0 km/h NO 17,7 C 21,1 C 0,0 km/h
09.07.2017 20:00 20,8 C 82 % 1008,3 hPa 0,5 l/m 0,0 km/h S-SO 17,6 C 20,8 C 0,0 km/h
09.07.2017 21:00 19,1 C 82 % 1009,7 hPa 0,0 l/m 0,0 km/h SO 16,0 C 19,1 C 0,0 km/h
09.07.2017 22:00 19,7 C 82 % 1010,4 hPa 0,0 l/m 0,0 km/h NO 16,5 C 19,7 C 0,0 km/h
09.07.2017 23:00 18,9 C 82 % 1009,2 hPa 0,0 l/m 0,0 km/h NO 15,8 C 18,9 C 0,0 km/h
Min-Datum _ 05.07.17 06.07.17 03.07.17 - 03.07.17 - 03.07.17 05.07.17 03.07.17
_ Min-Zeit 05:55 16:55 00:55 - 00:55 - 06:55 05:55 00:55
Minimum _ 13,8 C 20 % 994,2 hPa - 0,0 km/h - 9,7 C 13,8 C 0,0 km/h
Max-Datum _ 06.07.17 04.07.17 03.07.17 09.07.17 05.07.17 - 08.07.17 06.07.17 05.07.17
_ Max-Zeit 16:55 04:55 08:55 03:55 16:55 - 08:55 16:55 16:55
Maximum _ 39,9 C 83 % 1021,9 hPa 3,6 l/m 24,0 km/h
O-NO
- 22,1 C 39,9 C 13,3 km/h
O-NO
Durchschnitt _ 24,7 C 61 % 1014,0 hPa #7,8 l/m 1,4 km/h O-SO 15,5 C 24,7 C 0,8 km/h
www.sexauwetter.de